»·PEaware :: N1511H KMRY-KPDX

N1511H :: KMRY-KPDX

FLIGHT INFORMATION

Flight Status: Arrived
Operator: Privately registered:
United States
More flights under this callsign
Pilot: Phillip S. (23877)
Aircraft: EMBRAER PHENOM 300
(E55P)
More flights by this aircraft type
Origin: KMRY Monterey Peninsula
United States
Destination: KPDX Portland Intl
United States
More flights between these airports :: More routes between these airports
Route: +MRY5 SHOEY PYE J501 OED OCITY3
File this flight plan on PilotEdge
Remarks:
Altitude:
(Current/Filed)
38,000ft
Speed:
(Current/Filed)
450kts
Departed: 13-Jul-20 04:34 PM
Arrived: 13-Jul-20 06:07 PM
Distance/Time
Traveled:
541nm/1:33
Distance/Time
To Go:
Arrived

Flight Plot

Page will automatically refresh every two minutes.


Map Options




Map Legend


Flown Route
Filed Route
Departure Airport
Arrival Airport
Navaid (VOR, NDB)
Fix

Horizontal Profiles

Position Reports

Time Latitude Longitude Heading Altitude Ground
Speed
13-Jul-20 16:07 36.588414 -121.852162 204 208ft 0kts
13-Jul-20 16:08 36.588414 -121.852162 204 208ft 0kts
13-Jul-20 16:09 36.588414 -121.852162 204 208ft 0kts
13-Jul-20 16:10 36.588414 -121.852162 204 208ft 0kts
13-Jul-20 16:11 36.588414 -121.852162 204 208ft 0kts
13-Jul-20 16:12 36.588414 -121.852162 204 208ft 0kts
13-Jul-20 16:13 36.588414 -121.852162 204 208ft 0kts
13-Jul-20 16:14 36.588414 -121.852162 204 208ft 0kts
13-Jul-20 16:15 36.588414 -121.852162 204 208ft 0kts
13-Jul-20 16:16 36.588414 -121.852162 204 208ft 0kts
13-Jul-20 16:17 36.588414 -121.852162 204 208ft 0kts
13-Jul-20 16:18 36.588414 -121.852162 204 208ft 0kts
13-Jul-20 16:19 36.588414 -121.852162 204 208ft 0kts
13-Jul-20 16:20 36.588414 -121.852162 204 208ft 0kts
13-Jul-20 16:21 36.588414 -121.852162 204 208ft 0kts
13-Jul-20 16:22 36.588414 -121.852162 204 208ft 0kts
13-Jul-20 16:23 36.588414 -121.852162 204 208ft 0kts
13-Jul-20 16:24 36.588414 -121.852162 204 208ft 0kts
13-Jul-20 16:25 36.588414 -121.852162 204 208ft 0kts
13-Jul-20 16:26 36.588414 -121.852162 204 208ft 0kts
13-Jul-20 16:27 36.588793 -121.851943 204 208ft 0kts
13-Jul-20 16:28 36.587849 -121.849367 118 208ft 16kts
13-Jul-20 16:29 36.585332 -121.842337 112 208ft 22kts
13-Jul-20 16:30 36.583233 -121.836146 113 208ft 16kts
13-Jul-20 16:31 36.582873 -121.834844 97 208ft 0kts
13-Jul-20 16:32 36.582887 -121.834024 85 208ft 9kts
13-Jul-20 16:33 36.588496 -121.847880 292 518ft 146kts
13-Jul-20 16:34 36.632224 -121.892970 340 2984ft 233kts
13-Jul-20 16:35 36.696858 -121.922271 323 5135ft 251kts
13-Jul-20 16:36 36.724858 -122.000571 278 6928ft 273kts
13-Jul-20 16:37 36.738499 -122.088216 280 6992ft 261kts
13-Jul-20 16:38 36.781284 -122.154986 335 6991ft 258kts
13-Jul-20 16:39 36.845741 -122.189744 334 8032ft 252kts
13-Jul-20 16:40 36.916660 -122.228099 334 10873ft 302kts
13-Jul-20 16:41 37.001256 -122.273933 334 13709ft 355kts
13-Jul-20 16:42 37.095696 -122.325207 335 16526ft 380kts
13-Jul-20 16:43 37.194510 -122.379004 335 18653ft 407kts
13-Jul-20 16:44 37.299987 -122.436580 335 20937ft 409kts
13-Jul-20 16:45 37.402793 -122.492872 335 23732ft 395kts
13-Jul-20 16:46 37.507130 -122.550209 335 24303ft 435kts
13-Jul-20 16:47 37.619576 -122.612166 335 26044ft 429kts
13-Jul-20 16:48 37.726506 -122.671280 336 28109ft 419kts
13-Jul-20 16:49 37.833407 -122.730572 336 29609ft 419kts
13-Jul-20 16:50 37.940226 -122.790002 336 30783ft 423kts
13-Jul-20 16:51 38.048782 -122.850214 338 31786ft 426kts
13-Jul-20 16:52 38.165728 -122.868902 358 32785ft 428kts
13-Jul-20 16:53 38.284824 -122.869847 358 33785ft 426kts
13-Jul-20 16:54 38.403120 -122.870976 357 34780ft 423kts
13-Jul-20 16:55 38.519872 -122.872080 357 35773ft 418kts
13-Jul-20 16:56 38.635190 -122.873174 357 36766ft 411kts
13-Jul-20 16:57 38.748401 -122.874293 356 37748ft 404kts
13-Jul-20 16:58 38.862861 -122.875445 356 37880ft 419kts
13-Jul-20 16:59 38.981460 -122.876617 357 37886ft 433kts
13-Jul-20 17:00 39.103171 -122.877809 356 37913ft 439kts
13-Jul-20 17:01 39.224880 -122.879004 356 37845ft 436kts
13-Jul-20 17:02 39.345858 -122.880200 356 37890ft 432kts
13-Jul-20 17:03 39.465883 -122.881404 356 37846ft 431kts
13-Jul-20 17:04 39.585446 -122.882600 356 37879ft 429kts
13-Jul-20 17:05 39.704931 -122.883803 356 37873ft 428kts
13-Jul-20 17:06 39.824003 -122.885004 356 37857ft 428kts
13-Jul-20 17:07 39.943196 -122.886210 356 37853ft 428kts
13-Jul-20 17:08 40.062243 -122.887414 355 37878ft 427kts
13-Jul-20 17:09 40.180643 -122.888624 355 37858ft 426kts
13-Jul-20 17:10 40.298566 -122.889830 355 37861ft 425kts
13-Jul-20 17:11 40.417162 -122.891046 355 37893ft 424kts
13-Jul-20 17:13 40.535000 -122.892260 355 37911ft 423kts
13-Jul-20 17:14 40.652794 -122.893479 355 37933ft 423kts
13-Jul-20 17:15 40.770634 -122.894701 355 37939ft 423kts
13-Jul-20 17:16 40.888663 -122.895930 355 37936ft 423kts
13-Jul-20 17:17 41.006218 -122.897157 354 37941ft 423kts
13-Jul-20 17:18 41.124042 -122.898390 354 37949ft 423kts
13-Jul-20 17:19 41.241749 -122.899629 354 37965ft 423kts
13-Jul-20 17:20 41.359711 -122.900874 354 37989ft 422kts
13-Jul-20 17:21 41.477344 -122.902121 354 38000ft 422kts
13-Jul-20 17:22 41.594743 -122.903372 354 38004ft 422kts
13-Jul-20 17:23 41.712190 -122.904625 354 38002ft 422kts
13-Jul-20 17:24 41.829593 -122.905884 354 38000ft 422kts
13-Jul-20 17:25 41.947350 -122.907148 353 38007ft 422kts
13-Jul-20 17:26 42.065115 -122.908416 353 37978ft 422kts
13-Jul-20 17:27 42.182043 -122.909680 352 37996ft 421kts
13-Jul-20 17:28 42.299100 -122.910956 352 37986ft 420kts
13-Jul-20 17:28 42.396528 -122.912019 352 37978ft 419kts
13-Jul-20 17:30 42.532630 -122.909585 357 38004ft 422kts
13-Jul-20 17:31 42.649705 -122.897226 357 38036ft 421kts
13-Jul-20 17:31 42.747200 -122.887928 356 38062ft 420kts
13-Jul-20 17:33 42.883084 -122.875116 356 38062ft 420kts
13-Jul-20 17:33 42.980459 -122.865915 356 38060ft 420kts
13-Jul-20 17:34 43.096953 -122.854872 356 38056ft 419kts
13-Jul-20 17:36 43.232745 -122.841949 356 38066ft 419kts
13-Jul-20 17:36 43.329588 -122.832695 356 38069ft 419kts
13-Jul-20 17:37 43.445656 -122.821566 356 38085ft 418kts
13-Jul-20 17:38 43.560350 -122.810495 356 37535ft 408kts
13-Jul-20 17:39 43.673955 -122.799549 356 35415ft 407kts
13-Jul-20 17:40 43.786156 -122.788661 356 33319ft 401kts
13-Jul-20 17:41 43.896903 -122.777876 356 31216ft 395kts
13-Jul-20 17:42 44.005574 -122.767252 356 29124ft 389kts
13-Jul-20 17:43 44.112720 -122.756744 356 27071ft 381kts
13-Jul-20 17:44 44.217232 -122.746474 356 25169ft 371kts
13-Jul-20 17:45 44.318409 -122.736516 357 23319ft 359kts
13-Jul-20 17:46 44.417559 -122.726742 357 21518ft 356kts
13-Jul-20 17:47 44.516199 -122.716961 358 19724ft 357kts
13-Jul-20 17:48 44.614706 -122.707174 359 18012ft 342kts
13-Jul-20 17:49 44.705940 -122.697945 359 16357ft 318kts
13-Jul-20 17:50 44.793065 -122.689262 0 14776ft 314kts
13-Jul-20 17:51 44.879155 -122.680593 0 13168ft 310kts
13-Jul-20 17:52 44.963058 -122.672126 2 11947ft 282kts
13-Jul-20 17:53 45.032715 -122.629900 26 10945ft 266kts
13-Jul-20 17:54 45.096292 -122.579805 26 9943ft 257kts
13-Jul-20 17:55 45.158583 -122.531398 26 8942ft 253kts
13-Jul-20 17:56 45.220256 -122.484001 26 7966ft 256kts
13-Jul-20 17:57 45.282953 -122.435715 26 6838ft 257kts
13-Jul-20 17:58 45.347723 -122.394021 9 5422ft 234kts
13-Jul-20 17:59 45.403669 -122.380892 6 4120ft 186kts
13-Jul-20 18:00 45.449836 -122.380828 347 3717ft 164kts
13-Jul-20 18:01 45.494037 -122.403843 326 2720ft 170kts
13-Jul-20 18:02 45.527367 -122.446495 315 1699ft 153kts
13-Jul-20 18:03 45.553090 -122.489517 302 1005ft 121kts
13-Jul-20 18:04 45.568952 -122.531071 301 645ft 114kts
13-Jul-20 18:05 45.585197 -122.571264 300 33ft 106kts
13-Jul-20 18:06 45.590803 -122.586914 257 33ft 0kts
13-Jul-20 18:07 45.590491 -122.588602 254 33ft 16kts

Navigation Log

Ident Type
Flight plan parsing failed, navigation log unavailable